createdAt,value
2017-11-16T00:01:25.443Z,8.70
2017-11-16T00:03:58.207Z,8.80
2017-11-16T00:06:41.093Z,8.70
2017-11-16T00:09:19.716Z,8.70
2017-11-16T00:11:57.130Z,8.70
2017-11-16T00:14:30.123Z,8.70
2017-11-16T00:17:02.543Z,8.60
2017-11-16T00:19:40.814Z,8.60
2017-11-16T00:22:14.391Z,8.70
2017-11-16T00:27:31.257Z,8.70
2017-11-16T00:30:11.833Z,8.60
2017-11-16T00:32:52.776Z,8.60
2017-11-16T00:35:29.365Z,8.60
2017-11-16T00:38:07.253Z,8.60
2017-11-16T00:40:45.616Z,8.60
2017-11-16T00:43:22.530Z,8.60
2017-11-16T00:45:56.380Z,8.60
2017-11-16T00:48:35.886Z,8.60
2017-11-16T00:51:13.511Z,8.50
2017-11-16T00:53:50.943Z,8.50
2017-11-16T00:56:28.374Z,8.50
2017-11-16T00:59:01.680Z,8.60
2017-11-16T01:01:45.308Z,8.60
2017-11-16T01:04:23.505Z,8.60
2017-11-16T01:07:01.367Z,8.60
2017-11-16T01:09:38.800Z,8.60
2017-11-16T01:12:17.499Z,8.70
2017-11-16T01:14:55.062Z,8.70
2017-11-16T01:17:32.744Z,8.70
2017-11-16T01:20:10.964Z,8.80
2017-11-16T01:22:49.818Z,8.70
2017-11-16T01:25:27.736Z,8.80
2017-11-16T01:28:05.131Z,8.70
2017-11-16T01:30:45.159Z,8.80
2017-11-16T01:33:18.064Z,8.80
2017-11-16T01:35:58.704Z,8.80
2017-11-16T01:38:37.824Z,8.80
2017-11-16T01:41:15.112Z,8.80
2017-11-16T01:43:53.002Z,8.80
2017-11-16T01:46:34.520Z,8.80
2017-11-16T01:49:15.959Z,8.80
2017-11-16T01:51:53.230Z,8.80
2017-11-16T01:54:34.340Z,8.80
2017-11-16T01:57:12.767Z,8.80
2017-11-16T01:59:51.107Z,8.90
2017-11-16T02:02:34.522Z,8.90
2017-11-16T02:05:13.610Z,8.80
2017-11-16T02:07:53.327Z,8.70
2017-11-16T02:10:25.920Z,8.70
2017-11-16T02:13:04.117Z,8.70
2017-11-16T02:15:43.970Z,8.60
2017-11-16T02:18:24.112Z,8.60
2017-11-16T02:20:58.650Z,8.60
2017-11-16T02:23:38.067Z,8.70
2017-11-16T02:26:15.896Z,8.70
2017-11-16T02:28:54.241Z,8.70
2017-11-16T02:31:33.496Z,8.70
2017-11-16T02:34:10.525Z,8.80
2017-11-16T02:36:48.508Z,8.80
2017-11-16T02:39:27.701Z,8.80
2017-11-16T02:42:05.349Z,8.80
2017-11-16T02:44:46.578Z,8.70
2017-11-16T02:47:24.918Z,8.70
2017-11-16T02:50:02.536Z,8.70
2017-11-16T02:52:41.302Z,8.70
2017-11-16T02:55:20.569Z,8.70
2017-11-16T02:57:58.858Z,8.60
2017-11-16T03:00:31.763Z,8.60
2017-11-16T03:03:09.068Z,8.60
2017-11-16T03:05:46.808Z,8.60
2017-11-16T03:08:24.689Z,8.60
2017-11-16T03:11:03.995Z,8.50
2017-11-16T03:13:47.325Z,8.50
2017-11-16T03:16:21.189Z,8.60
2017-11-16T03:18:59.073Z,8.60
2017-11-16T03:21:37.977Z,8.60
2017-11-16T03:24:12.447Z,8.50
2017-11-16T03:26:51.618Z,8.50
2017-11-16T03:29:29.619Z,8.50
2017-11-16T03:32:08.745Z,8.50
2017-11-16T03:34:48.261Z,8.50
2017-11-16T03:37:26.954Z,8.50
2017-11-16T03:40:04.741Z,8.50
2017-11-16T03:42:43.204Z,8.50
2017-11-16T03:45:24.634Z,8.40
2017-11-16T03:48:04.659Z,8.40
2017-11-16T03:50:43.604Z,8.40
2017-11-16T03:53:20.630Z,8.40
2017-11-16T03:55:54.353Z,8.40
2017-11-16T03:58:34.426Z,8.30
2017-11-16T04:01:14.106Z,8.30
2017-11-16T04:03:50.949Z,8.30
2017-11-16T04:06:28.421Z,8.30
2017-11-16T04:09:07.756Z,8.40
2017-11-16T04:11:46.042Z,8.40
2017-11-16T04:17:09.389Z,8.30
2017-11-16T04:19:46.698Z,8.20
2017-11-16T04:22:19.881Z,8.20
2017-11-16T04:24:58.067Z,8.10
2017-11-16T04:27:35.165Z,8.10
2017-11-16T04:30:15.008Z,8.10
2017-11-16T04:32:54.650Z,8.10
2017-11-16T04:35:26.506Z,8.10
2017-11-16T04:38:04.174Z,8.10
2017-11-16T04:40:38.284Z,8.10
2017-11-16T04:43:18.032Z,8.10
2017-11-16T04:45:50.189Z,8.10
2017-11-16T04:48:28.632Z,8.20
2017-11-16T04:51:06.745Z,8.20
2017-11-16T04:53:45.712Z,8.10
2017-11-16T04:56:24.008Z,8.20
2017-11-16T04:59:04.249Z,8.30
2017-11-16T05:01:43.238Z,8.20
2017-11-16T05:04:24.328Z,8.30
2017-11-16T05:07:05.521Z,8.30
2017-11-16T05:09:45.561Z,8.20
2017-11-16T05:12:17.718Z,8.10
2017-11-16T05:14:56.057Z,8.00
2017-11-16T05:17:34.047Z,8.00
2017-11-16T05:20:11.538Z,8.00
2017-11-16T05:22:49.210Z,8.10
2017-11-16T05:25:28.019Z,8.00
2017-11-16T05:28:06.832Z,8.10
2017-11-16T05:30:45.181Z,8.10
2017-11-16T05:33:22.389Z,8.00
2017-11-16T05:36:00.082Z,8.10
2017-11-16T05:38:38.899Z,8.10
2017-11-16T05:41:19.094Z,8.00
2017-11-16T05:43:52.625Z,8.00
2017-11-16T05:46:33.860Z,7.90
2017-11-16T05:49:12.619Z,8.00
2017-11-16T05:51:52.193Z,7.80
2017-11-16T05:54:24.827Z,7.80
2017-11-16T05:57:03.331Z,7.90
2017-11-16T05:59:40.919Z,8.00
2017-11-16T06:02:13.722Z,7.80
2017-11-16T06:04:55.090Z,7.70
2017-11-16T06:07:28.885Z,7.60
2017-11-16T06:10:07.784Z,7.60
2017-11-16T06:12:48.491Z,7.50
2017-11-16T06:15:24.897Z,7.50
2017-11-16T06:17:57.708Z,7.50
2017-11-16T06:20:32.071Z,7.50
2017-11-16T06:23:08.529Z,7.50
2017-11-16T06:25:41.925Z,7.50
2017-11-16T06:28:16.232Z,7.50
2017-11-16T06:30:53.940Z,7.50
2017-11-16T06:33:32.426Z,7.50
2017-11-16T06:36:11.460Z,7.40
2017-11-16T06:38:48.489Z,7.50
2017-11-16T06:41:26.092Z,7.60
2017-11-16T06:44:05.097Z,7.60
2017-11-16T06:46:39.316Z,7.40
2017-11-16T06:49:14.151Z,7.30
2017-11-16T06:51:47.475Z,7.30
2017-11-16T06:54:21.440Z,7.30
2017-11-16T06:56:58.544Z,7.30
2017-11-16T06:59:32.559Z,7.30
2017-11-16T07:02:08.057Z,7.40
2017-11-16T07:04:41.804Z,7.50
2017-11-16T07:07:16.531Z,7.40
2017-11-16T07:09:51.125Z,7.50
2017-11-16T07:12:24.324Z,7.50
2017-11-16T07:15:03.164Z,7.20
2017-11-16T07:17:43.157Z,7.30
2017-11-16T07:20:15.685Z,7.20
2017-11-16T07:22:56.367Z,7.20
2017-11-16T07:25:35.919Z,7.10
2017-11-16T07:28:09.594Z,7.00
2017-11-16T07:30:43.492Z,7.00
2017-11-16T07:33:16.364Z,7.00
2017-11-16T07:35:54.166Z,7.00
2017-11-16T07:38:28.483Z,6.90
2017-11-16T07:41:04.061Z,7.00
2017-11-16T07:43:43.080Z,6.90
2017-11-16T07:46:22.026Z,6.80
2017-11-16T07:48:59.816Z,6.80
2017-11-16T07:51:40.723Z,6.90
2017-11-16T07:54:19.062Z,6.90
2017-11-16T07:56:56.595Z,6.90
2017-11-16T07:59:36.341Z,6.90
2017-11-16T08:02:09.983Z,6.90
2017-11-16T08:04:45.705Z,6.90
2017-11-16T08:07:19.363Z,6.90
2017-11-16T08:09:58.206Z,6.80
2017-11-16T08:12:36.771Z,6.70
2017-11-16T08:15:15.881Z,6.70
2017-11-16T08:17:55.090Z,6.70
2017-11-16T08:20:33.389Z,6.70
2017-11-16T08:23:12.085Z,6.70
2017-11-16T08:25:48.898Z,6.70
2017-11-16T08:28:28.013Z,6.70
2017-11-16T08:31:05.271Z,6.70
2017-11-16T08:33:47.409Z,6.80
2017-11-16T08:36:25.386Z,6.70
2017-11-16T08:38:58.207Z,6.60
2017-11-16T08:41:37.005Z,6.70
2017-11-16T08:44:09.924Z,6.80
2017-11-16T08:46:49.109Z,6.80
2017-11-16T08:49:27.030Z,6.80
2017-11-16T08:52:06.130Z,6.90
2017-11-16T08:54:46.908Z,6.80
2017-11-16T08:57:25.469Z,6.70
2017-11-16T09:00:03.275Z,6.70
2017-11-16T09:02:40.812Z,6.80
2017-11-16T09:05:13.890Z,6.80
2017-11-16T09:07:46.449Z,6.80
2017-11-16T09:10:19.269Z,6.80
2017-11-16T09:12:56.559Z,7.10
2017-11-16T09:15:36.684Z,7.10
2017-11-16T09:18:16.044Z,7.30
2017-11-16T09:20:55.401Z,7.30
2017-11-16T09:23:35.431Z,7.20
2017-11-16T09:26:12.877Z,7.20
2017-11-16T09:28:52.285Z,7.30
2017-11-16T09:31:35.703Z,7.70
2017-11-16T09:34:13.873Z,7.60
2017-11-16T09:36:47.381Z,7.70
2017-11-16T09:39:25.845Z,7.70
2017-11-16T09:42:05.703Z,7.80
2017-11-16T09:44:44.622Z,7.90
2017-11-16T09:47:19.180Z,7.80
2017-11-16T09:49:52.308Z,7.90
2017-11-16T09:52:26.709Z,8.00
2017-11-16T09:55:05.534Z,7.90
2017-11-16T09:57:38.665Z,7.80
2017-11-16T10:00:12.304Z,7.70
2017-11-16T10:02:50.384Z,7.60
2017-11-16T10:05:29.472Z,7.80
2017-11-16T10:08:08.600Z,7.80
2017-11-16T10:10:47.191Z,7.90
2017-11-16T10:13:24.851Z,8.00
2017-11-16T10:16:03.430Z,8.20
2017-11-16T10:18:40.683Z,8.20
2017-11-16T10:21:20.017Z,8.20
2017-11-16T10:23:55.841Z,8.40
2017-11-16T10:26:30.157Z,8.60
2017-11-16T10:29:09.186Z,8.90
2017-11-16T10:31:50.172Z,8.80
2017-11-16T10:34:27.353Z,8.60
2017-11-16T10:37:02.425Z,8.50
2017-11-16T10:39:35.881Z,8.60
2017-11-16T10:42:08.457Z,8.90
2017-11-16T10:44:42.225Z,8.90
2017-11-16T10:47:21.317Z,9.10
2017-11-16T10:49:54.761Z,9.00
2017-11-16T10:52:33.966Z,8.90
2017-11-16T10:55:13.368Z,8.90
2017-11-16T10:57:51.191Z,9.20
2017-11-16T11:00:24.625Z,9.20
2017-11-16T11:02:57.139Z,9.30
2017-11-16T11:05:36.628Z,9.30
2017-11-16T11:08:09.789Z,9.30
2017-11-16T11:10:42.817Z,9.20
2017-11-16T11:13:16.438Z,8.90
2017-11-16T11:15:56.726Z,8.90
2017-11-16T11:18:29.484Z,9.10
2017-11-16T11:21:07.160Z,9.20
2017-11-16T11:23:46.376Z,9.30
2017-11-16T11:26:26.098Z,9.30
2017-11-16T11:28:59.410Z,9.30
2017-11-16T11:31:31.989Z,9.50
2017-11-16T11:34:06.194Z,9.80
2017-11-16T11:36:41.698Z,9.70
2017-11-16T11:39:21.758Z,9.80
2017-11-16T11:41:55.388Z,9.80
2017-11-16T11:44:34.226Z,9.80
2017-11-16T11:47:12.090Z,9.80
2017-11-16T11:49:50.267Z,9.70
2017-11-16T11:52:29.978Z,9.60
2017-11-16T11:55:08.768Z,9.70
2017-11-16T11:57:47.177Z,9.70
2017-11-16T12:00:24.623Z,9.60
2017-11-16T12:03:00.386Z,9.80
2017-11-16T12:05:35.369Z,9.80
2017-11-16T12:08:14.943Z,9.90
2017-11-16T12:10:55.972Z,9.90
2017-11-16T12:13:33.697Z,9.90
2017-11-16T12:16:06.350Z,9.80
2017-11-16T12:18:45.655Z,9.80
2017-11-16T12:21:25.891Z,9.90
2017-11-16T12:24:04.597Z,9.60
2017-11-16T12:26:38.309Z,9.60
2017-11-16T12:29:12.092Z,9.60
2017-11-16T12:31:49.497Z,9.60
2017-11-16T12:34:28.234Z,9.50
2017-11-16T12:37:01.752Z,9.60
2017-11-16T12:39:39.545Z,9.60
2017-11-16T12:42:17.607Z,9.70
2017-11-16T12:44:57.108Z,9.80
2017-11-16T12:47:34.277Z,9.70
2017-11-16T12:50:11.555Z,9.70
2017-11-16T12:52:45.545Z,9.80
2017-11-16T12:55:18.255Z,9.80
2017-11-16T12:57:55.646Z,9.80
2017-11-16T13:00:33.109Z,9.80
2017-11-16T13:03:12.614Z,9.70
2017-11-16T13:05:54.592Z,9.60
2017-11-16T13:08:33.349Z,9.70
2017-11-16T13:11:08.472Z,9.60
2017-11-16T13:13:41.740Z,9.70
2017-11-16T13:16:14.683Z,9.70
2017-11-16T13:18:52.991Z,9.70
2017-11-16T13:21:33.364Z,9.90
2017-11-16T13:24:11.041Z,9.90
2017-11-16T13:26:49.571Z,9.90
2017-11-16T13:29:29.063Z,10.00
2017-11-16T13:32:10.138Z,10.00
2017-11-16T13:34:49.322Z,10.00
2017-11-16T13:37:26.111Z,10.10
2017-11-16T13:40:06.447Z,10.00
2017-11-16T13:42:41.529Z,10.10
2017-11-16T13:45:14.761Z,10.10
2017-11-16T13:47:52.999Z,10.10
2017-11-16T13:50:32.735Z,10.20
2017-11-16T13:53:07.622Z,10.30
2017-11-16T13:55:40.652Z,10.20
2017-11-16T13:58:15.473Z,10.00
2017-11-16T14:00:49.505Z,10.00
2017-11-16T14:03:23.094Z,10.00
2017-11-16T14:06:06.018Z,9.90
2017-11-16T14:08:45.501Z,9.90
2017-11-16T14:11:25.375Z,9.90
2017-11-16T14:13:58.827Z,10.10
2017-11-16T14:16:36.385Z,10.10
2017-11-16T14:19:17.222Z,10.10
2017-11-16T14:21:50.403Z,10.10
2017-11-16T14:24:23.364Z,10.10
2017-11-16T14:27:00.304Z,10.00
2017-11-16T14:29:43.081Z,9.90
2017-11-16T14:32:25.887Z,9.80
2017-11-16T14:34:55.899Z,9.70
2017-11-16T14:37:36.248Z,9.70
2017-11-16T14:40:12.402Z,9.60
2017-11-16T14:42:47.833Z,9.50
2017-11-16T14:45:27.909Z,9.50
2017-11-16T14:48:02.095Z,9.50
2017-11-16T14:50:36.670Z,9.60
2017-11-16T14:53:09.761Z,9.60
2017-11-16T14:55:48.547Z,9.60
2017-11-16T14:58:26.025Z,9.60
2017-11-16T15:01:05.680Z,9.50
2017-11-16T15:03:44.896Z,9.60
2017-11-16T15:06:26.227Z,9.60
2017-11-16T15:09:04.898Z,9.60
2017-11-16T15:11:44.669Z,9.50
2017-11-16T15:14:18.590Z,9.50
2017-11-16T15:16:51.745Z,9.40
2017-11-16T15:19:33.742Z,9.30
2017-11-16T15:22:12.204Z,9.30
2017-11-16T15:24:53.648Z,9.20
2017-11-16T15:27:27.553Z,9.30
2017-11-16T15:30:08.546Z,9.30
2017-11-16T15:32:48.173Z,9.30
2017-11-16T15:35:21.592Z,9.20
2017-11-16T15:37:55.917Z,9.20
2017-11-16T15:40:30.653Z,9.20
2017-11-16T15:43:08.311Z,9.30
2017-11-16T15:45:47.803Z,9.30
2017-11-16T15:48:21.176Z,9.30
2017-11-16T15:51:00.946Z,9.40
2017-11-16T15:53:39.329Z,9.40
2017-11-16T15:56:18.437Z,9.30
2017-11-16T15:58:58.089Z,9.30
2017-11-16T16:01:40.001Z,9.20
2017-11-16T16:04:21.383Z,9.30
2017-11-16T16:06:59.783Z,9.30
2017-11-16T16:09:39.382Z,9.30
2017-11-16T16:12:13.050Z,9.30
2017-11-16T16:14:51.860Z,9.20
2017-11-16T16:17:24.714Z,9.20
2017-11-16T16:20:04.088Z,9.20
2017-11-16T16:22:41.887Z,9.20
2017-11-16T16:25:16.258Z,9.30
2017-11-16T16:27:56.295Z,9.20
2017-11-16T16:30:35.378Z,9.30
2017-11-16T16:33:14.397Z,9.30
2017-11-16T16:35:48.242Z,9.20
2017-11-16T16:38:26.286Z,9.20
2017-11-16T16:41:03.905Z,9.30
2017-11-16T16:43:46.935Z,9.40
2017-11-16T16:46:28.094Z,9.50
2017-11-16T16:49:06.078Z,9.30
2017-11-16T16:51:41.579Z,9.30
2017-11-16T16:54:15.309Z,9.30
2017-11-16T16:56:53.637Z,9.30
2017-11-16T16:59:32.617Z,9.30
2017-11-16T17:02:11.418Z,9.20
2017-11-16T17:04:45.501Z,9.20
2017-11-16T17:07:25.974Z,9.20
2017-11-16T17:10:04.785Z,9.20
2017-11-16T17:12:48.951Z,9.20
2017-11-16T17:15:30.564Z,9.20
2017-11-16T17:18:11.050Z,9.20
2017-11-16T17:20:45.521Z,9.20
2017-11-16T17:23:27.451Z,9.20
2017-11-16T17:26:01.257Z,9.20
2017-11-16T17:28:41.034Z,9.30
2017-11-16T17:31:20.896Z,9.20
2017-11-16T17:34:00.480Z,9.30
2017-11-16T17:36:33.518Z,9.20
2017-11-16T17:39:14.897Z,9.20
2017-11-16T17:41:54.806Z,9.30
2017-11-16T17:44:34.319Z,9.20
2017-11-16T17:47:07.589Z,9.30
2017-11-16T17:49:44.274Z,9.30
2017-11-16T17:52:21.009Z,9.40
2017-11-16T17:54:55.253Z,9.40
2017-11-16T17:57:36.710Z,9.40
2017-11-16T18:00:12.100Z,9.40
2017-11-16T18:02:52.715Z,9.40
2017-11-16T18:05:26.936Z,9.50
2017-11-16T18:08:08.851Z,9.50
2017-11-16T18:10:49.021Z,9.50
2017-11-16T18:13:23.058Z,9.50
2017-11-16T18:15:58.523Z,9.60
2017-11-16T18:18:32.404Z,9.60
2017-11-16T18:21:12.545Z,9.60
2017-11-16T18:23:52.356Z,9.60
2017-11-16T18:26:31.127Z,9.60
2017-11-16T18:29:13.078Z,9.60
2017-11-16T18:31:51.707Z,9.60
2017-11-16T18:34:26.811Z,9.70
2017-11-16T18:37:06.836Z,9.70
2017-11-16T18:39:45.098Z,9.70
2017-11-16T18:42:20.350Z,9.70
2017-11-16T18:44:56.005Z,9.70
2017-11-16T18:47:38.202Z,9.70
2017-11-16T18:50:18.224Z,9.90
2017-11-16T18:52:52.811Z,9.90
2017-11-16T18:55:32.573Z,9.90
2017-11-16T18:58:13.123Z,9.80
2017-11-16T19:00:52.870Z,9.90
2017-11-16T19:03:32.689Z,9.90
2017-11-16T19:06:11.038Z,9.90
2017-11-16T19:08:51.182Z,9.90
2017-11-16T19:11:29.915Z,9.90
2017-11-16T19:14:09.888Z,9.90
2017-11-16T19:16:51.295Z,9.90
2017-11-16T19:19:31.991Z,9.90
2017-11-16T19:22:05.033Z,9.90
2017-11-16T19:24:45.200Z,10.00
2017-11-16T19:27:26.464Z,9.90
2017-11-16T19:30:00.447Z,9.90
2017-11-16T19:32:34.523Z,9.90
2017-11-16T19:35:08.543Z,9.90
2017-11-16T19:37:47.524Z,9.90
2017-11-16T19:40:28.368Z,9.90
2017-11-16T19:43:03.386Z,9.90
2017-11-16T19:45:43.018Z,9.90
2017-11-16T19:48:21.193Z,9.90
2017-11-16T19:50:59.084Z,9.90
2017-11-16T19:53:38.036Z,10.00
2017-11-16T19:56:12.683Z,9.90
2017-11-16T19:58:52.151Z,9.90
2017-11-16T20:01:32.386Z,9.90
2017-11-16T20:04:11.192Z,9.90
2017-11-16T20:06:50.906Z,9.90
2017-11-16T20:09:32.218Z,9.90
2017-11-16T20:12:11.693Z,9.90
2017-11-16T20:14:50.462Z,9.90
2017-11-16T20:17:29.165Z,9.90
2017-11-16T20:20:08.538Z,9.80
2017-11-16T20:22:46.531Z,9.90
2017-11-16T20:25:20.339Z,9.80
2017-11-16T20:27:54.734Z,9.90
2017-11-16T20:30:28.746Z,9.90
2017-11-16T20:33:06.998Z,9.90
2017-11-16T20:35:46.387Z,9.90
2017-11-16T20:38:30.201Z,10.00
2017-11-16T20:41:10.560Z,10.00
2017-11-16T20:43:53.001Z,9.90
2017-11-16T20:46:29.220Z,9.90
2017-11-16T20:49:06.644Z,9.90
2017-11-16T20:52:01.252Z,9.90
2017-11-16T20:57:30.549Z,9.90
2017-11-16T21:00:10.037Z,9.90
2017-11-16T21:02:48.469Z,9.90
2017-11-16T21:05:27.515Z,9.90
2017-11-16T21:08:06.574Z,9.90
2017-11-16T21:10:47.137Z,9.90
2017-11-16T21:13:26.400Z,9.90
2017-11-16T21:16:07.376Z,9.90
2017-11-16T21:18:46.229Z,9.90
2017-11-16T21:21:25.269Z,9.90
2017-11-16T21:24:09.075Z,9.90
2017-11-16T21:26:49.010Z,9.90
2017-11-16T21:29:22.864Z,9.90
2017-11-16T21:32:02.595Z,9.90
2017-11-16T21:34:42.379Z,9.80
2017-11-16T21:37:20.717Z,9.90
2017-11-16T21:39:59.215Z,9.90
2017-11-16T21:42:39.649Z,9.90
2017-11-16T21:45:17.504Z,9.90
2017-11-16T21:47:56.651Z,9.90
2017-11-16T21:50:38.280Z,9.90
2017-11-16T21:53:18.385Z,9.90
2017-11-16T21:55:58.435Z,9.90
2017-11-16T21:58:31.805Z,9.90
2017-11-16T22:01:10.097Z,9.90
2017-11-16T22:03:50.091Z,9.90
2017-11-16T22:06:30.124Z,9.90
2017-11-16T22:09:09.034Z,9.90
2017-11-16T22:11:51.538Z,9.90
2017-11-16T22:14:31.966Z,9.90
2017-11-16T22:17:06.483Z,9.90
2017-11-16T22:19:45.910Z,9.90
2017-11-16T22:22:24.990Z,9.90
2017-11-16T22:25:01.023Z,9.90
2017-11-16T22:27:35.972Z,9.90
2017-11-16T22:30:10.315Z,9.90
2017-11-16T22:32:43.543Z,9.90
2017-11-16T22:35:22.284Z,9.90
2017-11-16T22:38:02.009Z,9.90
2017-11-16T22:40:41.169Z,9.90
2017-11-16T22:43:21.135Z,9.90
2017-11-16T22:46:01.177Z,9.90
2017-11-16T22:48:43.277Z,9.90
2017-11-16T22:51:24.017Z,9.90
2017-11-16T22:54:03.353Z,9.90
2017-11-16T22:56:41.466Z,9.90
2017-11-16T22:59:20.705Z,9.90
2017-11-16T23:01:58.157Z,9.80
2017-11-16T23:04:35.336Z,9.80
2017-11-16T23:07:14.460Z,9.80
2017-11-16T23:09:53.904Z,9.80
2017-11-16T23:12:34.564Z,9.80
2017-11-16T23:15:14.679Z,9.80
2017-11-16T23:17:49.061Z,9.80
2017-11-16T23:20:28.064Z,9.80
2017-11-16T23:23:05.605Z,9.80
2017-11-16T23:25:45.663Z,9.70
2017-11-16T23:28:18.808Z,9.70
2017-11-16T23:30:55.836Z,9.60
2017-11-16T23:33:36.284Z,9.60
2017-11-16T23:36:15.139Z,9.60
2017-11-16T23:38:55.696Z,9.60
2017-11-16T23:41:36.212Z,9.70
2017-11-16T23:44:14.444Z,9.70
2017-11-16T23:46:51.852Z,9.70
2017-11-16T23:49:30.711Z,9.80
2017-11-16T23:52:09.489Z,9.80
2017-11-16T23:54:48.566Z,9.80
2017-11-16T23:57:26.310Z,9.80
